sensor_id;sensor_type;location;lat;lon;timestamp;pressure;altitude;pressure_sealevel;temperature;humidity
54872;BME280;43914;57.680;11.982;2023-04-09T00:01:07;102138.52;;;5.79;50.83
54872;BME280;43914;57.680;11.982;2023-04-09T00:03:33;102140.54;;;5.79;51.18
54872;BME280;43914;57.680;11.982;2023-04-09T00:05:59;102138.09;;;5.78;51.64
54872;BME280;43914;57.680;11.982;2023-04-09T00:08:25;102132.31;;;5.76;51.69
54872;BME280;43914;57.680;11.982;2023-04-09T00:10:52;102130.58;;;5.76;51.80
54872;BME280;43914;57.680;11.982;2023-04-09T00:13:18;102129.11;;;5.74;51.96
54872;BME280;43914;57.680;11.982;2023-04-09T00:15:45;102125.29;;;5.75;52.11
54872;BME280;43914;57.680;11.982;2023-04-09T00:18:12;102126.92;;;5.75;52.18
54872;BME280;43914;57.680;11.982;2023-04-09T00:20:38;102125.89;;;5.72;52.09
54872;BME280;43914;57.680;11.982;2023-04-09T00:23:03;102125.52;;;5.70;52.09
54872;BME280;43914;57.680;11.982;2023-04-09T00:25:29;102124.09;;;5.68;52.27
54872;BME280;43914;57.680;11.982;2023-04-09T00:27:55;102123.14;;;5.64;52.44
54872;BME280;43914;57.680;11.982;2023-04-09T00:30:21;102118.75;;;5.59;52.56
54872;BME280;43914;57.680;11.982;2023-04-09T00:32:47;102121.74;;;5.56;52.79
54872;BME280;43914;57.680;11.982;2023-04-09T00:35:13;102122.45;;;5.52;52.99
54872;BME280;43914;57.680;11.982;2023-04-09T00:37:38;102119.16;;;5.46;53.11
54872;BME280;43914;57.680;11.982;2023-04-09T00:40:04;102115.13;;;5.40;53.30
54872;BME280;43914;57.680;11.982;2023-04-09T00:42:31;102116.14;;;5.37;53.24
54872;BME280;43914;57.680;11.982;2023-04-09T00:44:57;102116.23;;;5.33;53.43
54872;BME280;43914;57.680;11.982;2023-04-09T00:47:22;102116.13;;;5.27;53.46
54872;BME280;43914;57.680;11.982;2023-04-09T00:49:48;102115.01;;;5.23;53.62
54872;BME280;43914;57.680;11.982;2023-04-09T00:52:14;102114.27;;;5.18;53.58
54872;BME280;43914;57.680;11.982;2023-04-09T00:54:39;102113.83;;;5.15;53.82
54872;BME280;43914;57.680;11.982;2023-04-09T00:57:05;102112.16;;;5.11;53.90
54872;BME280;43914;57.680;11.982;2023-04-09T00:59:31;102112.46;;;5.09;53.93
54872;BME280;43914;57.680;11.982;2023-04-09T01:01:56;102105.84;;;5.05;54.03
54872;BME280;43914;57.680;11.982;2023-04-09T01:04:23;102107.31;;;5.02;54.16
54872;BME280;43914;57.680;11.982;2023-04-09T01:07:00;102109.59;;;5.00;54.36
54872;BME280;43914;57.680;11.982;2023-04-09T01:09:55;102105.40;;;4.97;54.45
54872;BME280;43914;57.680;11.982;2023-04-09T01:15:41;102106.77;;;4.83;54.54
54872;BME280;43914;57.680;11.982;2023-04-09T01:18:22;102107.40;;;4.79;54.69
54872;BME280;43914;57.680;11.982;2023-04-09T01:23:44;102091.44;;;4.69;54.85
54872;BME280;43914;57.680;11.982;2023-04-09T01:26:40;102097.55;;;4.70;54.85
54872;BME280;43914;57.680;11.982;2023-04-09T01:29:09;102100.30;;;4.69;54.84
54872;BME280;43914;57.680;11.982;2023-04-09T01:31:37;102096.56;;;4.67;54.78
54872;BME280;43914;57.680;11.982;2023-04-09T01:34:05;102096.67;;;4.68;54.90
54872;BME280;43914;57.680;11.982;2023-04-09T01:36:33;102094.48;;;4.66;54.82
54872;BME280;43914;57.680;11.982;2023-04-09T01:39:01;102096.33;;;4.63;54.94
54872;BME280;43914;57.680;11.982;2023-04-09T01:41:30;102094.50;;;4.58;55.08
54872;BME280;43914;57.680;11.982;2023-04-09T01:43:57;102097.71;;;4.56;55.13
54872;BME280;43914;57.680;11.982;2023-04-09T01:46:26;102097.16;;;4.53;55.30
54872;BME280;43914;57.680;11.982;2023-04-09T01:48:54;102102.39;;;4.52;55.51
54872;BME280;43914;57.680;11.982;2023-04-09T01:51:20;102103.83;;;4.50;55.44
54872;BME280;43914;57.680;11.982;2023-04-09T01:53:47;102104.61;;;4.46;55.72
54872;BME280;43914;57.680;11.982;2023-04-09T01:56:13;102107.55;;;4.42;55.81
54872;BME280;43914;57.680;11.982;2023-04-09T01:58:39;102110.54;;;4.40;56.01
54872;BME280;43914;57.680;11.982;2023-04-09T02:01:33;102102.26;;;4.37;56.05
54872;BME280;43914;57.680;11.982;2023-04-09T02:04:03;102104.08;;;4.33;56.04
54872;BME280;43914;57.680;11.982;2023-04-09T02:09:28;102106.27;;;4.28;56.58
54872;BME280;43914;57.680;11.982;2023-04-09T02:11:57;102102.98;;;4.24;56.48
54872;BME280;43914;57.680;11.982;2023-04-09T02:14:27;102105.86;;;4.21;56.59
54872;BME280;43914;57.680;11.982;2023-04-09T02:16:53;102102.67;;;4.18;56.70
54872;BME280;43914;57.680;11.982;2023-04-09T02:19:18;102104.56;;;4.16;56.67
54872;BME280;43914;57.680;11.982;2023-04-09T02:21:45;102100.66;;;4.14;56.77
54872;BME280;43914;57.680;11.982;2023-04-09T02:24:10;102102.34;;;4.13;56.98
54872;BME280;43914;57.680;11.982;2023-04-09T02:26:36;102101.92;;;4.11;56.98
54872;BME280;43914;57.680;11.982;2023-04-09T02:29:01;102099.85;;;4.10;56.92
54872;BME280;43914;57.680;11.982;2023-04-09T02:31:27;102095.13;;;4.10;57.26
54872;BME280;43914;57.680;11.982;2023-04-09T02:33:53;102098.55;;;4.09;57.17
54872;BME280;43914;57.680;11.982;2023-04-09T02:36:20;102097.52;;;4.06;57.28
54872;BME280;43914;57.680;11.982;2023-04-09T02:38:45;102099.94;;;4.01;57.25
54872;BME280;43914;57.680;11.982;2023-04-09T02:41:11;102095.88;;;3.96;57.47
54872;BME280;43914;57.680;11.982;2023-04-09T02:43:37;102097.85;;;3.96;57.68
54872;BME280;43914;57.680;11.982;2023-04-09T02:46:02;102101.95;;;3.93;57.70
54872;BME280;43914;57.680;11.982;2023-04-09T02:48:28;102095.91;;;3.90;57.79
54872;BME280;43914;57.680;11.982;2023-04-09T02:50:53;102094.05;;;3.89;57.86
54872;BME280;43914;57.680;11.982;2023-04-09T02:53:19;102092.66;;;3.88;57.86
54872;BME280;43914;57.680;11.982;2023-04-09T02:55:46;102090.16;;;3.86;57.93
54872;BME280;43914;57.680;11.982;2023-04-09T02:58:11;102089.59;;;3.84;58.02
54872;BME280;43914;57.680;11.982;2023-04-09T03:00:37;102089.42;;;3.82;58.17
54872;BME280;43914;57.680;11.982;2023-04-09T03:03:02;102088.13;;;3.80;58.27
54872;BME280;43914;57.680;11.982;2023-04-09T03:05:28;102087.57;;;3.78;58.28
54872;BME280;43914;57.680;11.982;2023-04-09T03:07:53;102086.80;;;3.76;58.35
54872;BME280;43914;57.680;11.982;2023-04-09T03:10:19;102086.50;;;3.75;58.24
54872;BME280;43914;57.680;11.982;2023-04-09T03:12:44;102083.76;;;3.73;58.44
54872;BME280;43914;57.680;11.982;2023-04-09T03:15:12;102081.73;;;3.72;58.42
54872;BME280;43914;57.680;11.982;2023-04-09T03:17:38;102079.37;;;3.68;58.49
54872;BME280;43914;57.680;11.982;2023-04-09T03:20:05;102077.46;;;3.65;58.70
54872;BME280;43914;57.680;11.982;2023-04-09T03:22:38;102074.02;;;3.63;58.68
54872;BME280;43914;57.680;11.982;2023-04-09T03:25:04;102073.88;;;3.63;58.56
54872;BME280;43914;57.680;11.982;2023-04-09T03:27:31;102062.41;;;3.54;58.60
54872;BME280;43914;57.680;11.982;2023-04-09T03:29:57;102068.30;;;3.58;58.68
54872;BME280;43914;57.680;11.982;2023-04-09T03:32:23;102072.90;;;3.56;58.68
54872;BME280;43914;57.680;11.982;2023-04-09T03:34:48;102071.20;;;3.55;58.75
54872;BME280;43914;57.680;11.982;2023-04-09T03:37:14;102067.91;;;3.51;58.77
54872;BME280;43914;57.680;11.982;2023-04-09T03:39:40;102065.81;;;3.48;58.80
54872;BME280;43914;57.680;11.982;2023-04-09T03:42:06;102067.30;;;3.45;58.82
54872;BME280;43914;57.680;11.982;2023-04-09T03:44:32;102067.79;;;3.42;58.93
54872;BME280;43914;57.680;11.982;2023-04-09T03:46:57;102070.63;;;3.42;58.87
54872;BME280;43914;57.680;11.982;2023-04-09T03:49:22;102072.74;;;3.42;58.91
54872;BME280;43914;57.680;11.982;2023-04-09T03:51:48;102070.52;;;3.41;58.86
54872;BME280;43914;57.680;11.982;2023-04-09T03:54:13;102067.05;;;3.35;58.86
54872;BME280;43914;57.680;11.982;2023-04-09T03:56:39;102071.56;;;3.36;59.05
54872;BME280;43914;57.680;11.982;2023-04-09T03:59:05;102067.36;;;3.36;59.18
54872;BME280;43914;57.680;11.982;2023-04-09T04:01:30;102070.57;;;3.35;59.26
54872;BME280;43914;57.680;11.982;2023-04-09T04:03:56;102072.05;;;3.34;59.53
54872;BME280;43914;57.680;11.982;2023-04-09T04:06:21;102073.30;;;3.34;59.66
54872;BME280;43914;57.680;11.982;2023-04-09T04:08:47;102073.20;;;3.33;59.58
54872;BME280;43914;57.680;11.982;2023-04-09T04:11:12;102069.23;;;3.32;59.66
54872;BME280;43914;57.680;11.982;2023-04-09T04:13:38;102076.65;;;3.32;59.81
54872;BME280;43914;57.680;11.982;2023-04-09T04:16:09;102079.60;;;3.30;60.12
54872;BME280;43914;57.680;11.982;2023-04-09T04:18:35;102076.80;;;3.27;60.25
54872;BME280;43914;57.680;11.982;2023-04-09T04:21:01;102074.88;;;3.24;60.53
54872;BME280;43914;57.680;11.982;2023-04-09T04:23:26;102077.16;;;3.21;60.73
54872;BME280;43914;57.680;11.982;2023-04-09T04:25:52;102080.05;;;3.18;60.71
54872;BME280;43914;57.680;11.982;2023-04-09T04:28:18;102079.60;;;3.14;60.87
54872;BME280;43914;57.680;11.982;2023-04-09T04:30:43;102080.20;;;3.10;61.01
54872;BME280;43914;57.680;11.982;2023-04-09T04:33:09;102081.31;;;3.07;61.31
54872;BME280;43914;57.680;11.982;2023-04-09T04:35:34;102082.39;;;3.04;61.38
54872;BME280;43914;57.680;11.982;2023-04-09T04:38:00;102082.75;;;3.04;61.38
54872;BME280;43914;57.680;11.982;2023-04-09T04:40:26;102085.14;;;3.05;61.43
54872;BME280;43914;57.680;11.982;2023-04-09T04:42:51;102083.77;;;3.07;61.62
54872;BME280;43914;57.680;11.982;2023-04-09T04:45:17;102087.42;;;3.08;61.59
54872;BME280;43914;57.680;11.982;2023-04-09T04:47:42;102085.92;;;3.09;61.71
54872;BME280;43914;57.680;11.982;2023-04-09T04:50:08;102088.83;;;3.11;61.89
54872;BME280;43914;57.680;11.982;2023-04-09T04:52:35;102083.96;;;3.12;62.03
54872;BME280;43914;57.680;11.982;2023-04-09T04:55:00;102090.46;;;3.13;61.90
54872;BME280;43914;57.680;11.982;2023-04-09T04:57:26;102091.74;;;3.15;61.89
54872;BME280;43914;57.680;11.982;2023-04-09T04:59:51;102091.54;;;3.18;61.84
54872;BME280;43914;57.680;11.982;2023-04-09T05:02:17;102086.55;;;3.21;61.85
54872;BME280;43914;57.680;11.982;2023-04-09T05:04:42;102085.09;;;3.22;61.67
54872;BME280;43914;57.680;11.982;2023-04-09T05:07:07;102084.29;;;3.23;61.70
54872;BME280;43914;57.680;11.982;2023-04-09T05:09:33;102089.56;;;3.29;61.36
54872;BME280;43914;57.680;11.982;2023-04-09T05:11:58;102090.51;;;3.34;61.24
54872;BME280;43914;57.680;11.982;2023-04-09T05:14:24;102090.38;;;3.39;60.94
54872;BME280;43914;57.680;11.982;2023-04-09T05:16:50;102093.81;;;3.45;60.57
54872;BME280;43914;57.680;11.982;2023-04-09T05:19:16;102092.34;;;3.51;60.20
54872;BME280;43914;57.680;11.982;2023-04-09T05:21:42;102098.14;;;3.57;59.82
54872;BME280;43914;57.680;11.982;2023-04-09T05:24:07;102093.99;;;3.61;59.58
54872;BME280;43914;57.680;11.982;2023-04-09T05:26:33;102099.14;;;3.66;59.33
54872;BME280;43914;57.680;11.982;2023-04-09T05:28:58;102096.25;;;3.72;59.23
54872;BME280;43914;57.680;11.982;2023-04-09T05:31:24;102096.83;;;3.77;58.91
54872;BME280;43914;57.680;11.982;2023-04-09T05:33:49;102097.51;;;3.82;58.76
54872;BME280;43914;57.680;11.982;2023-04-09T05:36:16;102093.94;;;3.88;58.56
54872;BME280;43914;57.680;11.982;2023-04-09T05:38:43;102093.52;;;3.92;58.26
54872;BME280;43914;57.680;11.982;2023-04-09T05:41:08;102093.34;;;3.94;58.05
54872;BME280;43914;57.680;11.982;2023-04-09T05:43:34;102096.94;;;3.98;57.76
54872;BME280;43914;57.680;11.982;2023-04-09T05:45:59;102101.92;;;4.03;57.67
54872;BME280;43914;57.680;11.982;2023-04-09T05:48:25;102098.71;;;4.09;57.48
54872;BME280;43914;57.680;11.982;2023-04-09T05:50:51;102099.83;;;4.13;57.38
54872;BME280;43914;57.680;11.982;2023-04-09T05:53:18;102095.94;;;4.18;57.29
54872;BME280;43914;57.680;11.982;2023-04-09T05:55:44;102098.52;;;4.22;56.94
54872;BME280;43914;57.680;11.982;2023-04-09T05:58:10;102099.98;;;4.24;56.65
54872;BME280;43914;57.680;11.982;2023-04-09T06:00:36;102097.83;;;4.27;56.50
54872;BME280;43914;57.680;11.982;2023-04-09T06:03:02;102104.35;;;4.32;56.64
54872;BME280;43914;57.680;11.982;2023-04-09T06:05:28;102103.44;;;4.38;56.45
54872;BME280;43914;57.680;11.982;2023-04-09T06:07:54;102103.98;;;4.43;56.26
54872;BME280;43914;57.680;11.982;2023-04-09T06:10:19;102108.05;;;4.47;56.00
54872;BME280;43914;57.680;11.982;2023-04-09T06:12:45;102106.66;;;4.52;55.95
54872;BME280;43914;57.680;11.982;2023-04-09T06:15:11;102110.33;;;4.58;55.85
54872;BME280;43914;57.680;11.982;2023-04-09T06:17:36;102108.81;;;4.64;55.66
54872;BME280;43914;57.680;11.982;2023-04-09T06:20:02;102110.15;;;4.68;55.46
54872;BME280;43914;57.680;11.982;2023-04-09T06:22:28;102113.84;;;4.73;55.13
54872;BME280;43914;57.680;11.982;2023-04-09T06:24:53;102116.59;;;4.77;54.84
54872;BME280;43914;57.680;11.982;2023-04-09T06:27:19;102118.92;;;4.81;54.82
54872;BME280;43914;57.680;11.982;2023-04-09T06:29:46;102119.36;;;4.85;54.71
54872;BME280;43914;57.680;11.982;2023-04-09T06:32:11;102122.58;;;4.90;54.83
54872;BME280;43914;57.680;11.982;2023-04-09T06:34:37;102122.80;;;4.95;54.64
54872;BME280;43914;57.680;11.982;2023-04-09T06:37:02;102119.17;;;4.95;54.46
54872;BME280;43914;57.680;11.982;2023-04-09T06:39:28;102126.61;;;5.13;55.71
54872;BME280;43914;57.680;11.982;2023-04-09T06:41:53;102124.45;;;5.20;54.51
54872;BME280;43914;57.680;11.982;2023-04-09T06:44:19;102127.98;;;5.23;54.25
54872;BME280;43914;57.680;11.982;2023-04-09T06:46:45;102130.44;;;5.28;54.07
54872;BME280;43914;57.680;11.982;2023-04-09T06:49:11;102128.05;;;5.34;54.23
54872;BME280;43914;57.680;11.982;2023-04-09T06:51:37;102130.20;;;5.43;54.05
54872;BME280;43914;57.680;11.982;2023-04-09T06:54:02;102130.67;;;5.52;53.96
54872;BME280;43914;57.680;11.982;2023-04-09T06:56:28;102134.48;;;5.60;53.67
54872;BME280;43914;57.680;11.982;2023-04-09T06:58:53;102138.23;;;5.65;53.59
54872;BME280;43914;57.680;11.982;2023-04-09T07:01:19;102136.88;;;5.71;53.45
54872;BME280;43914;57.680;11.982;2023-04-09T07:03:45;102134.93;;;5.78;53.13
54872;BME280;43914;57.680;11.982;2023-04-09T07:06:11;102129.27;;;5.84;52.88
54872;BME280;43914;57.680;11.982;2023-04-09T07:08:36;102131.58;;;5.94;52.68
54872;BME280;43914;57.680;11.982;2023-04-09T07:11:02;102134.70;;;5.99;52.43
54872;BME280;43914;57.680;11.982;2023-04-09T07:13:27;102136.48;;;6.07;52.36
54872;BME280;43914;57.680;11.982;2023-04-09T07:15:53;102135.60;;;6.14;52.42
54872;BME280;43914;57.680;11.982;2023-04-09T07:18:18;102129.95;;;6.22;52.25
54872;BME280;43914;57.680;11.982;2023-04-09T07:20:44;102128.50;;;6.29;51.76
54872;BME280;43914;57.680;11.982;2023-04-09T07:23:10;102128.66;;;6.36;51.17
54872;BME280;43914;57.680;11.982;2023-04-09T07:25:36;102127.64;;;6.43;50.88
54872;BME280;43914;57.680;11.982;2023-04-09T07:28:01;102126.14;;;6.48;50.24
54872;BME280;43914;57.680;11.982;2023-04-09T07:30:27;102127.46;;;6.53;50.14
54872;BME280;43914;57.680;11.982;2023-04-09T07:32:52;102128.28;;;6.61;49.92
54872;BME280;43914;57.680;11.982;2023-04-09T07:35:18;102128.80;;;6.70;49.90
54872;BME280;43914;57.680;11.982;2023-04-09T07:37:44;102124.56;;;6.79;49.68
54872;BME280;43914;57.680;11.982;2023-04-09T07:40:09;102121.42;;;6.86;49.24
54872;BME280;43914;57.680;11.982;2023-04-09T07:42:38;102124.34;;;6.95;48.79
54872;BME280;43914;57.680;11.982;2023-04-09T07:45:05;102121.69;;;7.01;47.66
54872;BME280;43914;57.680;11.982;2023-04-09T07:47:31;102114.33;;;7.04;46.61
54872;BME280;43914;57.680;11.982;2023-04-09T07:49:57;102116.98;;;7.08;46.35
54872;BME280;43914;57.680;11.982;2023-04-09T07:52:22;102115.09;;;7.14;46.39
54872;BME280;43914;57.680;11.982;2023-04-09T07:54:48;102112.42;;;7.29;48.54
54872;BME280;43914;57.680;11.982;2023-04-09T07:57:13;102112.23;;;7.53;46.25
54872;BME280;43914;57.680;11.982;2023-04-09T07:59:39;102111.87;;;7.57;45.16
54872;BME280;43914;57.680;11.982;2023-04-09T08:02:04;102113.14;;;7.61;44.03
54872;BME280;43914;57.680;11.982;2023-04-09T08:04:30;102110.20;;;7.69;44.49
54872;BME280;43914;57.680;11.982;2023-04-09T08:06:55;102112.30;;;7.82;43.59
54872;BME280;43914;57.680;11.982;2023-04-09T08:09:24;102113.17;;;7.88;40.81
54872;BME280;43914;57.680;11.982;2023-04-09T08:11:49;102111.96;;;7.92;40.38
54872;BME280;43914;57.680;11.982;2023-04-09T08:14:17;102110.58;;;7.96;39.96
54872;BME280;43914;57.680;11.982;2023-04-09T08:16:46;102110.92;;;8.00;40.54
54872;BME280;43914;57.680;11.982;2023-04-09T08:19:15;102107.91;;;8.03;40.39
54872;BME280;43914;57.680;11.982;2023-04-09T08:21:42;102104.39;;;8.12;40.31
54872;BME280;43914;57.680;11.982;2023-04-09T08:24:08;102104.45;;;8.19;40.02
54872;BME280;43914;57.680;11.982;2023-04-09T08:26:36;102105.76;;;8.24;39.16
54872;BME280;43914;57.680;11.982;2023-04-09T08:29:02;102107.88;;;8.31;38.62
54872;BME280;43914;57.680;11.982;2023-04-09T08:31:27;102109.23;;;8.36;38.85
54872;BME280;43914;57.680;11.982;2023-04-09T08:33:53;102105.45;;;8.38;38.59
54872;BME280;43914;57.680;11.982;2023-04-09T08:36:19;102105.68;;;8.44;38.89
54872;BME280;43914;57.680;11.982;2023-04-09T08:38:45;102101.70;;;8.53;38.27
54872;BME280;43914;57.680;11.982;2023-04-09T08:41:22;102096.20;;;8.60;37.87
54872;BME280;43914;57.680;11.982;2023-04-09T08:43:53;102099.36;;;8.67;37.72
54872;BME280;43914;57.680;11.982;2023-04-09T08:46:19;102096.45;;;8.74;38.39
54872;BME280;43914;57.680;11.982;2023-04-09T08:48:46;102088.77;;;8.80;38.62
54872;BME280;43914;57.680;11.982;2023-04-09T08:51:16;102094.35;;;8.83;38.61
54872;BME280;43914;57.680;11.982;2023-04-09T08:53:44;102093.17;;;8.88;38.66
54872;BME280;43914;57.680;11.982;2023-04-09T08:56:10;102093.02;;;8.96;38.58
54872;BME280;43914;57.680;11.982;2023-04-09T08:58:41;102092.61;;;9.02;38.84
54872;BME280;43914;57.680;11.982;2023-04-09T09:01:28;102086.02;;;9.08;39.02
54872;BME280;43914;57.680;11.982;2023-04-09T09:04:03;102084.72;;;9.19;39.17
54872;BME280;43914;57.680;11.982;2023-04-09T09:06:34;102083.08;;;9.27;39.32
54872;BME280;43914;57.680;11.982;2023-04-09T09:09:12;102083.01;;;9.33;39.12
54872;BME280;43914;57.680;11.982;2023-04-09T09:11:39;102081.00;;;9.38;39.34
54872;BME280;43914;57.680;11.982;2023-04-09T09:14:13;102082.91;;;9.42;39.36
54872;BME280;43914;57.680;11.982;2023-04-09T09:16:40;102083.36;;;9.43;39.43
54872;BME280;43914;57.680;11.982;2023-04-09T09:19:27;102078.30;;;9.44;38.96
54872;BME280;43914;57.680;11.982;2023-04-09T09:21:58;102085.20;;;9.45;39.23
54872;BME280;43914;57.680;11.982;2023-04-09T09:24:24;102083.91;;;9.52;39.21
54872;BME280;43914;57.680;11.982;2023-04-09T09:26:50;102084.58;;;9.57;39.08
54872;BME280;43914;57.680;11.982;2023-04-09T09:29:16;102077.85;;;9.60;39.17
54872;BME280;43914;57.680;11.982;2023-04-09T09:31:49;102078.71;;;9.68;39.05
54872;BME280;43914;57.680;11.982;2023-04-09T09:34:17;102078.73;;;9.73;38.91
54872;BME280;43914;57.680;11.982;2023-04-09T09:36:43;102075.46;;;9.78;39.02
54872;BME280;43914;57.680;11.982;2023-04-09T09:39:11;102073.64;;;9.84;39.02
54872;BME280;43914;57.680;11.982;2023-04-09T09:41:38;102075.67;;;9.87;39.09
54872;BME280;43914;57.680;11.982;2023-04-09T09:44:06;102066.02;;;9.92;39.29
54872;BME280;43914;57.680;11.982;2023-04-09T09:46:39;102067.00;;;9.95;39.56
54872;BME280;43914;57.680;11.982;2023-04-09T09:49:07;102062.65;;;10.02;39.08
54872;BME280;43914;57.680;11.982;2023-04-09T09:51:35;102063.42;;;10.05;37.94
54872;BME280;43914;57.680;11.982;2023-04-09T09:54:02;102062.44;;;10.04;37.83
54872;BME280;43914;57.680;11.982;2023-04-09T09:56:34;102065.11;;;10.04;38.12
54872;BME280;43914;57.680;11.982;2023-04-09T09:59:15;102067.73;;;10.08;39.07
54872;BME280;43914;57.680;11.982;2023-04-09T10:01:46;102065.28;;;10.15;38.71
54872;BME280;43914;57.680;11.982;2023-04-09T10:04:13;102059.54;;;10.16;38.81
54872;BME280;43914;57.680;11.982;2023-04-09T10:06:42;102056.96;;;10.14;38.87
54872;BME280;43914;57.680;11.982;2023-04-09T10:09:09;102056.29;;;10.14;38.46
54872;BME280;43914;57.680;11.982;2023-04-09T10:11:36;102053.10;;;10.14;38.67
54872;BME280;43914;57.680;11.982;2023-04-09T10:14:03;102051.04;;;10.20;38.79
54872;BME280;43914;57.680;11.982;2023-04-09T10:16:31;102048.92;;;10.25;39.01
54872;BME280;43914;57.680;11.982;2023-04-09T10:18:58;102046.80;;;10.34;39.14
54872;BME280;43914;57.680;11.982;2023-04-09T10:21:41;102043.32;;;10.48;39.27
54872;BME280;43914;57.680;11.982;2023-04-09T10:24:08;102040.40;;;10.62;38.63
54872;BME280;43914;57.680;11.982;2023-04-09T10:26:38;102046.89;;;10.65;38.12
54872;BME280;43914;57.680;11.982;2023-04-09T10:29:08;102046.95;;;10.72;37.99
54872;BME280;43914;57.680;11.982;2023-04-09T10:31:50;102047.55;;;10.78;37.83
54872;BME280;43914;57.680;11.982;2023-04-09T10:34:26;102038.89;;;10.83;37.77
54872;BME280;43914;57.680;11.982;2023-04-09T10:36:55;102039.30;;;10.87;37.60
54872;BME280;43914;57.680;11.982;2023-04-09T10:39:30;102033.61;;;10.94;37.23
54872;BME280;43914;57.680;11.982;2023-04-09T10:41:57;102033.31;;;11.01;36.73
54872;BME280;43914;57.680;11.982;2023-04-09T10:44:25;102034.56;;;11.08;35.64
54872;BME280;43914;57.680;11.982;2023-04-09T10:46:53;102033.04;;;11.16;35.20
54872;BME280;43914;57.680;11.982;2023-04-09T10:49:21;102034.50;;;11.23;34.90
54872;BME280;43914;57.680;11.982;2023-04-09T10:51:51;102025.52;;;11.32;34.73
54872;BME280;43914;57.680;11.982;2023-04-09T10:59:41;102022.12;;;11.26;34.05
54872;BME280;43914;57.680;11.982;2023-04-09T11:02:08;102019.10;;;11.33;34.62
54872;BME280;43914;57.680;11.982;2023-04-09T11:07:04;102018.21;;;11.52;33.90
54872;BME280;43914;57.680;11.982;2023-04-09T11:09:34;102021.16;;;11.62;33.40
54872;BME280;43914;57.680;11.982;2023-04-09T11:12:00;102025.52;;;11.70;33.44
54872;BME280;43914;57.680;11.982;2023-04-09T11:14:28;102019.38;;;11.81;33.94
54872;BME280;43914;57.680;11.982;2023-04-09T11:16:53;102016.52;;;11.93;34.10
54872;BME280;43914;57.680;11.982;2023-04-09T11:19:19;102013.17;;;12.03;33.64
54872;BME280;43914;57.680;11.982;2023-04-09T11:21:46;102014.86;;;12.16;33.42
54872;BME280;43914;57.680;11.982;2023-04-09T11:24:13;102017.08;;;12.26;33.07
54872;BME280;43914;57.680;11.982;2023-04-09T11:26:39;102013.07;;;12.35;33.14
54872;BME280;43914;57.680;11.982;2023-04-09T11:29:07;102015.43;;;12.38;31.56
54872;BME280;43914;57.680;11.982;2023-04-09T11:31:34;102017.97;;;12.41;32.31
54872;BME280;43914;57.680;11.982;2023-04-09T11:33:59;102014.30;;;12.49;32.03
54872;BME280;43914;57.680;11.982;2023-04-09T11:36:25;102007.88;;;12.47;31.23
54872;BME280;43914;57.680;11.982;2023-04-09T11:38:54;102004.95;;;12.45;31.23
54872;BME280;43914;57.680;11.982;2023-04-09T11:41:34;102006.34;;;12.53;31.43
54872;BME280;43914;57.680;11.982;2023-04-09T11:44:19;102003.44;;;12.56;32.61
54872;BME280;43914;57.680;11.982;2023-04-09T11:46:45;102005.44;;;12.63;32.88
54872;BME280;43914;57.680;11.982;2023-04-09T11:49:13;102012.03;;;12.61;32.75
54872;BME280;43914;57.680;11.982;2023-04-09T11:51:39;102011.13;;;12.56;32.43
54872;BME280;43914;57.680;11.982;2023-04-09T11:54:05;102001.57;;;12.48;32.25
54872;BME280;43914;57.680;11.982;2023-04-09T11:56:32;102000.69;;;12.44;32.37
54872;BME280;43914;57.680;11.982;2023-04-09T11:59:00;101999.13;;;12.41;32.45
54872;BME280;43914;57.680;11.982;2023-04-09T12:01:30;101994.29;;;12.40;33.00
54872;BME280;43914;57.680;11.982;2023-04-09T12:04:00;101994.91;;;12.35;32.59
54872;BME280;43914;57.680;11.982;2023-04-09T12:06:26;101993.16;;;12.31;32.56
54872;BME280;43914;57.680;11.982;2023-04-09T12:08:54;101995.77;;;12.30;32.39
54872;BME280;43914;57.680;11.982;2023-04-09T12:11:27;101999.30;;;12.28;32.21
54872;BME280;43914;57.680;11.982;2023-04-09T12:14:02;101993.53;;;12.23;32.23
54872;BME280;43914;57.680;11.982;2023-04-09T12:16:30;101992.89;;;12.23;32.35
54872;BME280;43914;57.680;11.982;2023-04-09T12:19:06;101991.61;;;12.30;32.37
54872;BME280;43914;57.680;11.982;2023-04-09T12:21:48;101989.93;;;12.38;32.25
54872;BME280;43914;57.680;11.982;2023-04-09T12:24:15;101988.69;;;12.48;32.55
54872;BME280;43914;57.680;11.982;2023-04-09T12:26:42;101991.64;;;12.55;32.04
54872;BME280;43914;57.680;11.982;2023-04-09T12:29:07;101985.68;;;12.62;31.94
54872;BME280;43914;57.680;11.982;2023-04-09T12:31:33;101986.03;;;12.76;32.19
54872;BME280;43914;57.680;11.982;2023-04-09T12:33:58;101982.88;;;12.90;32.01
54872;BME280;43914;57.680;11.982;2023-04-09T12:36:25;101984.02;;;13.06;31.90
54872;BME280;43914;57.680;11.982;2023-04-09T12:38:52;101981.95;;;13.23;31.73
54872;BME280;43914;57.680;11.982;2023-04-09T12:41:17;101983.48;;;13.42;31.54
54872;BME280;43914;57.680;11.982;2023-04-09T12:43:43;101981.22;;;13.58;30.90
54872;BME280;43914;57.680;11.982;2023-04-09T12:46:09;101975.38;;;13.76;31.21
54872;BME280;43914;57.680;11.982;2023-04-09T12:48:34;101972.36;;;13.99;30.99
54872;BME280;43914;57.680;11.982;2023-04-09T12:51:00;101971.11;;;14.04;31.14
54872;BME280;43914;57.680;11.982;2023-04-09T12:53:27;101965.48;;;14.11;31.53
54872;BME280;43914;57.680;11.982;2023-04-09T12:55:52;101968.74;;;14.25;31.09
54872;BME280;43914;57.680;11.982;2023-04-09T12:58:18;101968.43;;;14.44;30.49
54872;BME280;43914;57.680;11.982;2023-04-09T13:00:45;101962.45;;;14.65;30.53
54872;BME280;43914;57.680;11.982;2023-04-09T13:03:10;101972.16;;;14.84;30.19
54872;BME280;43914;57.680;11.982;2023-04-09T13:05:36;101965.71;;;14.93;30.20